createdAt,value
2022-09-14T00:00:12.920Z,7.9
2022-09-14T00:05:58.040Z,7.9
2022-09-14T00:11:19.579Z,8
2022-09-14T00:16:41.903Z,8
2022-09-14T00:22:03.139Z,7.9
2022-09-14T00:27:23.915Z,7.9
2022-09-14T00:32:31.730Z,7.8
2022-09-14T00:38:09.535Z,7.6
2022-09-14T00:43:46.851Z,7.5
2022-09-14T00:49:25.184Z,7.4
2022-09-14T00:55:02.074Z,7.3
2022-09-14T01:00:39.094Z,7.2
2022-09-14T01:06:17.990Z,7.1
2022-09-14T01:11:39.064Z,7.1
2022-09-14T01:17:00.212Z,6.9
2022-09-14T01:22:06.750Z,6.9
2022-09-14T01:27:12.698Z,6.8
2022-09-14T01:32:34.848Z,6.8
2022-09-14T01:37:41.565Z,6.7
2022-09-14T01:43:03.229Z,6.6
2022-09-14T01:48:10.666Z,6.6
2022-09-14T01:53:17.404Z,6.4
2022-09-14T01:58:38.985Z,6.4
2022-09-14T02:04:02.673Z,6.3
2022-09-14T02:09:25.780Z,6.2
2022-09-14T02:15:02.291Z,6.1
2022-09-14T02:20:24.915Z,6.1
2022-09-14T02:26:02.789Z,6
2022-09-14T02:31:24.901Z,5.9
2022-09-14T02:36:47.497Z,5.9
2022-09-14T02:42:25.042Z,5.9
2022-09-14T02:48:02.193Z,5.8
2022-09-14T02:53:39.951Z,5.8
2022-09-14T02:59:16.421Z,5.8
2022-09-14T03:04:54.750Z,5.8
2022-09-14T03:10:33.036Z,5.8
2022-09-14T03:16:10.504Z,5.7
2022-09-14T03:21:49.048Z,5.7
2022-09-14T03:27:26.461Z,5.7
2022-09-14T03:32:48.355Z,5.6
2022-09-14T03:38:25.508Z,5.6
2022-09-14T03:44:04.209Z,5.6
2022-09-14T03:49:41.966Z,5.5
2022-09-14T03:55:24.955Z,5.5
2022-09-14T04:01:02.322Z,5.5
2022-09-14T04:06:40.308Z,5.5
2022-09-14T04:12:17.999Z,5.5
2022-09-14T04:17:39.845Z,5.6
2022-09-14T04:23:17.113Z,5.6
2022-09-14T04:29:44.858Z,5.7
2022-09-14T04:35:26.151Z,5.8
2022-09-14T04:41:03.707Z,6.1
2022-09-14T04:46:45.986Z,6.4
2022-09-14T04:52:23.244Z,7.4
2022-09-14T04:58:00.940Z,9.3
2022-09-14T05:03:41.037Z,11.5
2022-09-14T05:09:18.481Z,13.6
2022-09-14T05:15:01.954Z,15.6
2022-09-14T05:20:40.141Z,17.8
2022-09-14T05:26:17.205Z,20.3
2022-09-14T05:31:55.899Z,23
2022-09-14T05:37:33.544Z,25.9
2022-09-14T05:43:11.155Z,29.1
2022-09-14T05:48:51.310Z,32.4
2022-09-14T05:54:29.418Z,35.6
2022-09-14T06:00:06.810Z,38.6
2022-09-14T06:05:45.822Z,41.6
2022-09-14T06:11:50.409Z,44.6
2022-09-14T06:17:28.646Z,47.3
2022-09-14T06:23:12.937Z,50.3
2022-09-14T06:28:35.975Z,53.1
2022-09-14T06:33:58.802Z,49
2022-09-14T06:39:23.423Z,39.2
2022-09-14T06:44:46.398Z,46.2
2022-09-14T06:50:29.758Z,54.9
2022-09-14T06:56:07.649Z,45.7
2022-09-14T07:01:46.543Z,46
2022-09-14T07:07:27.661Z,54.3
2022-09-14T07:13:05.680Z,48.6
2022-09-14T07:18:31.287Z,48.8
2022-09-14T07:23:57.331Z,50
2022-09-14T07:29:34.850Z,50.9
2022-09-14T07:34:58.474Z,50.7
2022-09-14T07:40:45.789Z,51.7
2022-09-14T07:46:24.251Z,53.6
2022-09-14T07:52:02.324Z,54.7
2022-09-14T07:58:08.682Z,56
2022-09-14T08:04:09.739Z,56.9
2022-09-14T08:09:47.033Z,57.9
2022-09-14T08:15:28.329Z,58.9
2022-09-14T08:21:07.760Z,59.8
2022-09-14T08:26:51.336Z,60.3
2022-09-14T08:32:13.811Z,61.1
2022-09-14T08:38:15.050Z,62.1
2022-09-14T08:43:53.182Z,62.6
2022-09-14T08:49:31.327Z,63.3
2022-09-14T08:54:58.723Z,64.1
2022-09-14T09:00:30.161Z,64.8
2022-09-14T09:06:10.917Z,65.4
2022-09-14T09:11:50.749Z,65.8
2022-09-14T09:17:28.792Z,66.3
2022-09-14T09:23:11.147Z,67.1
2022-09-14T09:28:53.052Z,67.6
2022-09-14T09:34:06.588Z,68.3
2022-09-14T09:39:44.830Z,68.6
2022-09-14T09:45:53.069Z,69.2
2022-09-14T09:51:15.719Z,69.4
2022-09-14T09:56:53.341Z,70.1
2022-09-14T10:02:32.416Z,69.9
2022-09-14T10:08:11.642Z,69.8
2022-09-14T10:13:54.929Z,70.6
2022-09-14T10:19:39.201Z,71
2022-09-14T10:25:18.976Z,70.2
2022-09-14T10:31:02.012Z,70.2
2022-09-14T10:36:40.201Z,70.4
2022-09-14T10:42:19.421Z,70.6
2022-09-14T10:47:56.978Z,70.7
2022-09-14T10:53:35.621Z,70.5
2022-09-14T10:59:15.102Z,70.5
2022-09-14T11:04:38.714Z,70.4
2022-09-14T11:10:16.691Z,70.4
2022-09-14T11:15:59.400Z,71
2022-09-14T11:21:37.699Z,70.8
2022-09-14T11:27:16.650Z,70.8
2022-09-14T11:33:11.166Z,70.8
2022-09-14T11:38:52.299Z,71.1
2022-09-14T11:44:15.389Z,71
2022-09-14T11:50:26.523Z,70.8
2022-09-14T11:56:04.293Z,70.6
2022-09-14T12:01:42.854Z,70.4
2022-09-14T12:07:21.759Z,70.1
2022-09-14T12:13:03.678Z,69.4
2022-09-14T12:19:04.425Z,70.2
2022-09-14T12:24:42.640Z,69.8
2022-09-14T12:30:20.966Z,69.2
2022-09-14T12:36:02.970Z,74.8
2022-09-14T12:41:44.624Z,72.7
2022-09-14T12:47:26.325Z,67.3
2022-09-14T12:53:04.402Z,72.4
2022-09-14T12:58:42.213Z,76.1
2022-09-14T13:04:08.097Z,65
2022-09-14T13:09:46.860Z,67.8
2022-09-14T13:15:24.340Z,71.1
2022-09-14T13:20:47.555Z,72.4
2022-09-14T13:25:54.757Z,73.3
2022-09-14T13:31:17.182Z,66.1
2022-09-14T13:36:39.515Z,63.5
2022-09-14T13:41:34.376Z,64.7
2022-09-14T13:46:40.984Z,65.9
2022-09-14T13:51:47.869Z,66.1
2022-09-14T13:57:19.152Z,66
2022-09-14T14:02:25.651Z,65.4
2022-09-14T14:07:36.960Z,64.4
2022-09-14T14:13:02.418Z,63.4
2022-09-14T14:18:30.795Z,62.1
2022-09-14T14:23:51.219Z,60.6
2022-09-14T14:29:47.598Z,58.8
2022-09-14T14:35:10.399Z,57.1
2022-09-14T14:40:37.407Z,55.3
2022-09-14T14:46:01.216Z,53.8
2022-09-14T14:57:02.683Z,50.4
2022-09-14T15:02:45.215Z,48.5
2022-09-14T15:08:28.001Z,46.9
2022-09-14T15:14:05.593Z,45.2
2022-09-14T15:19:48.763Z,43.6
2022-09-14T15:25:10.789Z,41.9
2022-09-14T15:30:48.875Z,40.2
2022-09-14T15:36:30.065Z,39
2022-09-14T15:42:08.113Z,37.9
2022-09-14T15:47:52.012Z,37.2
2022-09-14T15:53:35.831Z,36.2
2022-09-14T15:59:13.748Z,35.3
2022-09-14T16:04:35.876Z,34.4
2022-09-14T16:10:15.674Z,33.6
2022-09-14T16:15:58.573Z,32.6
2022-09-14T16:21:37.271Z,31.8
2022-09-14T16:26:59.993Z,30.8
2022-09-14T16:32:38.288Z,29.8
2022-09-14T16:38:16.698Z,28.9
2022-09-14T16:43:55.651Z,28.1
2022-09-14T16:49:34.030Z,27.4
2022-09-14T16:55:12.937Z,26.6
2022-09-14T17:00:51.620Z,25.9
2022-09-14T17:06:29.650Z,25.3
2022-09-14T17:12:09.785Z,24.8
2022-09-14T17:17:48.167Z,24.2
2022-09-14T17:23:26.562Z,23.8
2022-09-14T17:29:04.745Z,23.3
2022-09-14T17:34:47.765Z,22.9
2022-09-14T17:40:25.325Z,22.6
2022-09-14T17:46:02.358Z,22.2
2022-09-14T17:51:46.689Z,21.9
2022-09-14T17:57:23.933Z,21.7
2022-09-14T18:03:07.878Z,21.4
2022-09-14T18:08:31.270Z,21.4
2022-09-14T18:14:08.331Z,21.3
2022-09-14T18:19:46.725Z,21.2
2022-09-14T18:30:16.308Z,21
2022-09-14T18:35:39.411Z,20.8
2022-09-14T18:41:03.691Z,20.6
2022-09-14T18:46:44.957Z,20.3
2022-09-14T18:52:08.249Z,20
2022-09-14T18:57:36.740Z,19.8
2022-09-14T19:02:44.137Z,19.6
2022-09-14T19:08:22.685Z,19.4
2022-09-14T19:14:01.258Z,19.1
2022-09-14T19:19:39.974Z,18.9
2022-09-14T19:25:39.790Z,18.8
2022-09-14T19:31:19.047Z,18.6
2022-09-14T19:36:58.087Z,18.3
2022-09-14T19:42:24.381Z,18.1
2022-09-14T19:48:04.207Z,17.9
2022-09-14T19:53:42.563Z,17.7
2022-09-14T19:59:21.013Z,17.5
2022-09-14T20:05:03.084Z,17.4
2022-09-14T20:10:45.060Z,17.2
2022-09-14T20:21:17.644Z,16.9
2022-09-14T20:27:21.974Z,16.7
2022-09-14T20:32:59.960Z,16.4
2022-09-14T20:38:06.998Z,16.3
2022-09-14T20:43:44.835Z,16.2
2022-09-14T21:13:48.878Z,15.4
2022-09-14T21:19:32.682Z,15.3
2022-09-14T21:24:54.414Z,15.2
2022-09-14T21:30:32.044Z,15.1
2022-09-14T21:36:10.505Z,15
2022-09-14T21:41:31.858Z,14.9
2022-09-14T21:47:09.690Z,14.9
2022-09-14T21:52:48.656Z,14.7
2022-09-14T21:58:24.807Z,14.7
2022-09-14T22:04:02.774Z,14.6
2022-09-14T22:09:41.149Z,14.5
2022-09-14T22:15:21.010Z,14.4
2022-09-14T22:20:12.713Z,14.3
2022-09-14T22:25:50.207Z,14.3
2022-09-14T22:31:26.670Z,14.2
2022-09-14T22:37:07.943Z,14.1
2022-09-14T22:42:45.363Z,14
2022-09-14T22:48:22.184Z,14
2022-09-14T22:53:44.435Z,14
2022-09-14T22:59:21.915Z,14
2022-09-14T23:04:43.871Z,13.9
2022-09-14T23:10:21.357Z,13.9
2022-09-14T23:15:58.989Z,13.8
2022-09-14T23:21:35.776Z,13.8
2022-09-14T23:26:57.312Z,13.7
2022-09-14T23:32:19.933Z,13.6
2022-09-14T23:37:55.929Z,13.6
2022-09-14T23:43:33.910Z,13.4
2022-09-14T23:49:11.738Z,13.3
2022-09-14T23:54:32.716Z,13.3
